sensor_id;sensor_type;location;lat;lon;timestamp;P1;durP1;ratioP1;P2;durP2;ratioP2
77085;SDS011;66014;53.134;18.006;2024-03-06T00:01:00;33.70;;;15.90;;
77085;SDS011;66014;53.134;18.006;2024-03-06T00:03:45;28.80;;;13.20;;
77085;SDS011;66014;53.134;18.006;2024-03-06T00:06:15;37.30;;;15.70;;
77085;SDS011;66014;53.134;18.006;2024-03-06T00:08:47;33.60;;;14.60;;
77085;SDS011;66014;53.134;18.006;2024-03-06T00:11:28;30.80;;;14.50;;
77085;SDS011;66014;53.134;18.006;2024-03-06T00:13:54;35.90;;;15.20;;
77085;SDS011;66014;53.134;18.006;2024-03-06T00:16:29;33.90;;;15.70;;
77085;SDS011;66014;53.134;18.006;2024-03-06T00:19:00;32.40;;;14.90;;
77085;SDS011;66014;53.134;18.006;2024-03-06T00:21:29;34.30;;;16.30;;
77085;SDS011;66014;53.134;18.006;2024-03-06T00:23:56;32.10;;;14.30;;
77085;SDS011;66014;53.134;18.006;2024-03-06T00:26:22;32.80;;;14.30;;
77085;SDS011;66014;53.134;18.006;2024-03-06T00:28:48;31.70;;;15.30;;
77085;SDS011;66014;53.134;18.006;2024-03-06T00:31:28;26.30;;;14.00;;
77085;SDS011;66014;53.134;18.006;2024-03-06T00:37:36;32.60;;;15.70;;
77085;SDS011;66014;53.134;18.006;2024-03-06T00:40:02;29.70;;;15.50;;
77085;SDS011;66014;53.134;18.006;2024-03-06T00:42:29;32.60;;;13.80;;
77085;SDS011;66014;53.134;18.006;2024-03-06T00:44:55;29.70;;;14.10;;
77085;SDS011;66014;53.134;18.006;2024-03-06T00:47:21;27.70;;;14.60;;
77085;SDS011;66014;53.134;18.006;2024-03-06T00:49:47;32.10;;;14.30;;
77085;SDS011;66014;53.134;18.006;2024-03-06T00:52:15;32.10;;;15.00;;
77085;SDS011;66014;53.134;18.006;2024-03-06T00:54:51;29.80;;;14.10;;
77085;SDS011;66014;53.134;18.006;2024-03-06T00:57:17;31.40;;;14.70;;
77085;SDS011;66014;53.134;18.006;2024-03-06T00:59:44;30.50;;;14.60;;
77085;SDS011;66014;53.134;18.006;2024-03-06T01:02:10;33.30;;;15.50;;
77085;SDS011;66014;53.134;18.006;2024-03-06T01:04:35;32.00;;;14.70;;
77085;SDS011;66014;53.134;18.006;2024-03-06T01:07:01;29.20;;;14.20;;
77085;SDS011;66014;53.134;18.006;2024-03-06T01:09:28;30.40;;;14.90;;
77085;SDS011;66014;53.134;18.006;2024-03-06T01:11:54;31.70;;;15.40;;
77085;SDS011;66014;53.134;18.006;2024-03-06T01:14:23;31.40;;;15.50;;
77085;SDS011;66014;53.134;18.006;2024-03-06T01:16:48;30.10;;;14.60;;
77085;SDS011;66014;53.134;18.006;2024-03-06T01:19:29;32.40;;;14.80;;
77085;SDS011;66014;53.134;18.006;2024-03-06T01:21:55;32.20;;;14.70;;
77085;SDS011;66014;53.134;18.006;2024-03-06T01:24:21;32.70;;;14.70;;
77085;SDS011;66014;53.134;18.006;2024-03-06T01:26:47;27.90;;;14.60;;
77085;SDS011;66014;53.134;18.006;2024-03-06T01:29:13;33.10;;;16.00;;
77085;SDS011;66014;53.134;18.006;2024-03-06T01:31:38;33.60;;;15.20;;
77085;SDS011;66014;53.134;18.006;2024-03-06T01:34:05;30.90;;;14.70;;
77085;SDS011;66014;53.134;18.006;2024-03-06T01:36:31;30.50;;;16.70;;
77085;SDS011;66014;53.134;18.006;2024-03-06T01:38:58;32.60;;;15.70;;
77085;SDS011;66014;53.134;18.006;2024-03-06T01:41:24;32.30;;;14.70;;
77085;SDS011;66014;53.134;18.006;2024-03-06T01:43:50;30.10;;;14.40;;
77085;SDS011;66014;53.134;18.006;2024-03-06T01:46:16;30.30;;;14.80;;
77085;SDS011;66014;53.134;18.006;2024-03-06T01:48:42;31.50;;;14.70;;
77085;SDS011;66014;53.134;18.006;2024-03-06T01:51:08;30.50;;;14.90;;
77085;SDS011;66014;53.134;18.006;2024-03-06T01:53:34;29.80;;;14.70;;
77085;SDS011;66014;53.134;18.006;2024-03-06T01:56:02;29.60;;;14.20;;
77085;SDS011;66014;53.134;18.006;2024-03-06T01:58:29;29.40;;;14.40;;
77085;SDS011;66014;53.134;18.006;2024-03-06T02:00:56;30.10;;;15.50;;
77085;SDS011;66014;53.134;18.006;2024-03-06T02:03:22;34.90;;;15.40;;
77085;SDS011;66014;53.134;18.006;2024-03-06T02:05:52;30.10;;;14.20;;
77085;SDS011;66014;53.134;18.006;2024-03-06T02:08:19;30.00;;;14.50;;
77085;SDS011;66014;53.134;18.006;2024-03-06T02:10:45;32.00;;;15.50;;
77085;SDS011;66014;53.134;18.006;2024-03-06T02:13:14;28.70;;;14.80;;
77085;SDS011;66014;53.134;18.006;2024-03-06T02:15:40;31.10;;;15.40;;
77085;SDS011;66014;53.134;18.006;2024-03-06T02:18:07;28.20;;;14.20;;
77085;SDS011;66014;53.134;18.006;2024-03-06T02:20:37;30.60;;;14.10;;
77085;SDS011;66014;53.134;18.006;2024-03-06T02:25:33;27.90;;;13.90;;
77085;SDS011;66014;53.134;18.006;2024-03-06T02:27:59;28.30;;;12.80;;
77085;SDS011;66014;53.134;18.006;2024-03-06T02:30:25;26.60;;;14.00;;
77085;SDS011;66014;53.134;18.006;2024-03-06T02:32:51;30.10;;;14.90;;
77085;SDS011;66014;53.134;18.006;2024-03-06T02:35:17;32.70;;;15.20;;
77085;SDS011;66014;53.134;18.006;2024-03-06T02:37:43;31.30;;;15.10;;
77085;SDS011;66014;53.134;18.006;2024-03-06T02:40:10;28.10;;;14.40;;
77085;SDS011;66014;53.134;18.006;2024-03-06T02:42:37;30.30;;;15.50;;
77085;SDS011;66014;53.134;18.006;2024-03-06T02:45:06;30.90;;;14.90;;
77085;SDS011;66014;53.134;18.006;2024-03-06T02:47:33;36.50;;;16.00;;
77085;SDS011;66014;53.134;18.006;2024-03-06T02:50:01;30.90;;;14.50;;
77085;SDS011;66014;53.134;18.006;2024-03-06T02:52:28;34.80;;;16.20;;
77085;SDS011;66014;53.134;18.006;2024-03-06T02:54:53;33.70;;;15.20;;
77085;SDS011;66014;53.134;18.006;2024-03-06T02:57:19;32.40;;;15.90;;
77085;SDS011;66014;53.134;18.006;2024-03-06T02:59:47;35.30;;;15.60;;
77085;SDS011;66014;53.134;18.006;2024-03-06T03:02:13;30.50;;;15.40;;
77085;SDS011;66014;53.134;18.006;2024-03-06T03:04:39;33.20;;;16.90;;
77085;SDS011;66014;53.134;18.006;2024-03-06T03:07:05;33.10;;;16.30;;
77085;SDS011;66014;53.134;18.006;2024-03-06T03:09:31;33.40;;;15.40;;
77085;SDS011;66014;53.134;18.006;2024-03-06T03:11:57;37.00;;;16.10;;
77085;SDS011;66014;53.134;18.006;2024-03-06T03:14:24;29.30;;;14.70;;
77085;SDS011;66014;53.134;18.006;2024-03-06T03:16:50;33.10;;;14.90;;
77085;SDS011;66014;53.134;18.006;2024-03-06T03:19:16;36.60;;;16.50;;
77085;SDS011;66014;53.134;18.006;2024-03-06T03:21:44;32.90;;;15.80;;
77085;SDS011;66014;53.134;18.006;2024-03-06T03:24:11;35.70;;;16.90;;
77085;SDS011;66014;53.134;18.006;2024-03-06T03:26:37;33.90;;;16.10;;
77085;SDS011;66014;53.134;18.006;2024-03-06T03:29:03;34.80;;;16.70;;
77085;SDS011;66014;53.134;18.006;2024-03-06T03:31:29;38.70;;;16.80;;
77085;SDS011;66014;53.134;18.006;2024-03-06T03:33:55;31.80;;;15.90;;
77085;SDS011;66014;53.134;18.006;2024-03-06T03:36:21;36.70;;;16.90;;
77085;SDS011;66014;53.134;18.006;2024-03-06T03:38:48;37.50;;;17.00;;
77085;SDS011;66014;53.134;18.006;2024-03-06T03:41:15;39.10;;;16.60;;
77085;SDS011;66014;53.134;18.006;2024-03-06T03:43:42;40.30;;;18.00;;
77085;SDS011;66014;53.134;18.006;2024-03-06T03:46:08;39.60;;;16.90;;
77085;SDS011;66014;53.134;18.006;2024-03-06T03:48:35;41.00;;;18.20;;
77085;SDS011;66014;53.134;18.006;2024-03-06T03:51:02;39.50;;;18.60;;
77085;SDS011;66014;53.134;18.006;2024-03-06T03:53:32;38.50;;;17.20;;
77085;SDS011;66014;53.134;18.006;2024-03-06T03:56:02;44.30;;;19.00;;
77085;SDS011;66014;53.134;18.006;2024-03-06T03:58:28;41.40;;;17.60;;
77085;SDS011;66014;53.134;18.006;2024-03-06T04:01:01;43.90;;;18.90;;
77085;SDS011;66014;53.134;18.006;2024-03-06T04:03:28;44.10;;;19.70;;
77085;SDS011;66014;53.134;18.006;2024-03-06T04:05:54;42.30;;;18.20;;
77085;SDS011;66014;53.134;18.006;2024-03-06T04:08:20;45.80;;;20.00;;
77085;SDS011;66014;53.134;18.006;2024-03-06T04:10:47;43.00;;;19.80;;
77085;SDS011;66014;53.134;18.006;2024-03-06T04:13:14;43.70;;;19.20;;
77085;SDS011;66014;53.134;18.006;2024-03-06T04:15:44;45.40;;;20.30;;
77085;SDS011;66014;53.134;18.006;2024-03-06T04:18:10;42.80;;;19.10;;
77085;SDS011;66014;53.134;18.006;2024-03-06T04:20:36;47.80;;;20.60;;
77085;SDS011;66014;53.134;18.006;2024-03-06T04:23:05;44.30;;;20.00;;
77085;SDS011;66014;53.134;18.006;2024-03-06T04:25:31;43.80;;;19.30;;
77085;SDS011;66014;53.134;18.006;2024-03-06T04:28:00;47.60;;;20.10;;
77085;SDS011;66014;53.134;18.006;2024-03-06T04:30:28;44.50;;;20.20;;
77085;SDS011;66014;53.134;18.006;2024-03-06T04:32:53;46.90;;;21.20;;
77085;SDS011;66014;53.134;18.006;2024-03-06T04:35:21;49.00;;;19.60;;
77085;SDS011;66014;53.134;18.006;2024-03-06T04:37:47;42.80;;;19.60;;
77085;SDS011;66014;53.134;18.006;2024-03-06T04:40:12;44.50;;;20.20;;
77085;SDS011;66014;53.134;18.006;2024-03-06T04:42:41;49.20;;;20.30;;
77085;SDS011;66014;53.134;18.006;2024-03-06T04:45:10;58.50;;;24.90;;
77085;SDS011;66014;53.134;18.006;2024-03-06T04:47:40;61.30;;;27.20;;
77085;SDS011;66014;53.134;18.006;2024-03-06T04:50:09;62.40;;;26.50;;
77085;SDS011;66014;53.134;18.006;2024-03-06T04:52:42;52.60;;;22.00;;
77085;SDS011;66014;53.134;18.006;2024-03-06T04:55:10;54.40;;;22.70;;
77085;SDS011;66014;53.134;18.006;2024-03-06T04:57:38;54.60;;;23.40;;
77085;SDS011;66014;53.134;18.006;2024-03-06T05:00:06;62.10;;;27.70;;
77085;SDS011;66014;53.134;18.006;2024-03-06T05:02:34;50.30;;;23.50;;
77085;SDS011;66014;53.134;18.006;2024-03-06T05:05:04;56.70;;;24.20;;
77085;SDS011;66014;53.134;18.006;2024-03-06T05:07:32;73.30;;;30.90;;
77085;SDS011;66014;53.134;18.006;2024-03-06T05:10:00;63.00;;;28.30;;
77085;SDS011;66014;53.134;18.006;2024-03-06T05:12:43;57.40;;;23.70;;
77085;SDS011;66014;53.134;18.006;2024-03-06T05:15:09;53.00;;;22.10;;
77085;SDS011;66014;53.134;18.006;2024-03-06T05:20:48;54.80;;;23.00;;
77085;SDS011;66014;53.134;18.006;2024-03-06T05:27:00;47.30;;;20.00;;
77085;SDS011;66014;53.134;18.006;2024-03-06T05:29:26;51.40;;;20.00;;
77085;SDS011;66014;53.134;18.006;2024-03-06T05:32:03;52.10;;;20.30;;
77085;SDS011;66014;53.134;18.006;2024-03-06T05:34:29;47.70;;;21.30;;
77085;SDS011;66014;53.134;18.006;2024-03-06T05:37:00;50.10;;;19.50;;
77085;SDS011;66014;53.134;18.006;2024-03-06T05:39:29;52.10;;;20.50;;
77085;SDS011;66014;53.134;18.006;2024-03-06T05:42:02;54.60;;;20.90;;
77085;SDS011;66014;53.134;18.006;2024-03-06T05:44:32;58.00;;;22.50;;
77085;SDS011;66014;53.134;18.006;2024-03-06T05:46:59;56.80;;;21.20;;
77085;SDS011;66014;53.134;18.006;2024-03-06T05:49:29;54.50;;;22.80;;
77085;SDS011;66014;53.134;18.006;2024-03-06T05:51:55;53.50;;;23.80;;
77085;SDS011;66014;53.134;18.006;2024-03-06T05:54:21;55.10;;;21.50;;
77085;SDS011;66014;53.134;18.006;2024-03-06T05:56:51;75.70;;;30.30;;
77085;SDS011;66014;53.134;18.006;2024-03-06T05:59:17;65.30;;;26.60;;
77085;SDS011;66014;53.134;18.006;2024-03-06T06:01:44;59.50;;;26.80;;
77085;SDS011;66014;53.134;18.006;2024-03-06T06:04:10;64.70;;;25.20;;
77085;SDS011;66014;53.134;18.006;2024-03-06T06:06:38;66.10;;;24.80;;
77085;SDS011;66014;53.134;18.006;2024-03-06T06:09:04;67.90;;;25.80;;
77085;SDS011;66014;53.134;18.006;2024-03-06T06:11:41;67.50;;;27.30;;
77085;SDS011;66014;53.134;18.006;2024-03-06T06:14:08;60.60;;;24.00;;
77085;SDS011;66014;53.134;18.006;2024-03-06T06:16:37;64.80;;;25.60;;
77085;SDS011;66014;53.134;18.006;2024-03-06T06:19:10;61.60;;;24.00;;
77085;SDS011;66014;53.134;18.006;2024-03-06T06:21:36;63.90;;;25.00;;
77085;SDS011;66014;53.134;18.006;2024-03-06T06:24:07;62.10;;;23.90;;
77085;SDS011;66014;53.134;18.006;2024-03-06T06:29:15;74.00;;;28.10;;
77085;SDS011;66014;53.134;18.006;2024-03-06T06:31:41;70.90;;;28.40;;
77085;SDS011;66014;53.134;18.006;2024-03-06T06:34:06;62.40;;;24.40;;
77085;SDS011;66014;53.134;18.006;2024-03-06T06:36:32;73.50;;;27.60;;
77085;SDS011;66014;53.134;18.006;2024-03-06T06:38:59;68.70;;;26.90;;
77085;SDS011;66014;53.134;18.006;2024-03-06T06:41:25;71.60;;;27.00;;
77085;SDS011;66014;53.134;18.006;2024-03-06T06:43:51;172.70;;;73.10;;
77085;SDS011;66014;53.134;18.006;2024-03-06T06:46:18;86.90;;;37.10;;
77085;SDS011;66014;53.134;18.006;2024-03-06T06:48:44;79.50;;;34.90;;
77085;SDS011;66014;53.134;18.006;2024-03-06T06:51:10;70.70;;;31.90;;
77085;SDS011;66014;53.134;18.006;2024-03-06T06:53:39;78.80;;;32.60;;
77085;SDS011;66014;53.134;18.006;2024-03-06T06:56:07;65.10;;;29.40;;
77085;SDS011;66014;53.134;18.006;2024-03-06T06:58:35;65.20;;;27.20;;
77085;SDS011;66014;53.134;18.006;2024-03-06T07:01:01;69.20;;;28.80;;
77085;SDS011;66014;53.134;18.006;2024-03-06T07:07:05;58.10;;;27.90;;
77085;SDS011;66014;53.134;18.006;2024-03-06T07:09:34;59.30;;;26.80;;
77085;SDS011;66014;53.134;18.006;2024-03-06T07:12:00;61.60;;;26.00;;
77085;SDS011;66014;53.134;18.006;2024-03-06T07:14:26;61.60;;;27.60;;
77085;SDS011;66014;53.134;18.006;2024-03-06T07:16:51;50.90;;;23.90;;
77085;SDS011;66014;53.134;18.006;2024-03-06T07:19:17;56.20;;;24.80;;
77085;SDS011;66014;53.134;18.006;2024-03-06T07:21:43;51.70;;;24.20;;
77085;SDS011;66014;53.134;18.006;2024-03-06T07:24:09;50.90;;;22.40;;
77085;SDS011;66014;53.134;18.006;2024-03-06T07:26:35;57.30;;;23.10;;
77085;SDS011;66014;53.134;18.006;2024-03-06T07:29:01;60.00;;;26.80;;
77085;SDS011;66014;53.134;18.006;2024-03-06T07:31:28;59.80;;;26.10;;
77085;SDS011;66014;53.134;18.006;2024-03-06T07:33:54;60.70;;;26.50;;
77085;SDS011;66014;53.134;18.006;2024-03-06T07:36:23;54.10;;;23.50;;
77085;SDS011;66014;53.134;18.006;2024-03-06T07:38:49;50.40;;;22.50;;
77085;SDS011;66014;53.134;18.006;2024-03-06T07:41:24;46.60;;;21.10;;
77085;SDS011;66014;53.134;18.006;2024-03-06T07:43:50;55.00;;;24.80;;
77085;SDS011;66014;53.134;18.006;2024-03-06T07:46:16;57.00;;;23.80;;
77085;SDS011;66014;53.134;18.006;2024-03-06T07:48:42;50.20;;;24.60;;
77085;SDS011;66014;53.134;18.006;2024-03-06T07:51:17;51.10;;;22.70;;
77085;SDS011;66014;53.134;18.006;2024-03-06T07:53:43;54.10;;;25.30;;
77085;SDS011;66014;53.134;18.006;2024-03-06T07:56:12;49.60;;;23.90;;
77085;SDS011;66014;53.134;18.006;2024-03-06T07:58:39;49.40;;;23.10;;
77085;SDS011;66014;53.134;18.006;2024-03-06T08:08:14;47.00;;;20.50;;
77085;SDS011;66014;53.134;18.006;2024-03-06T08:13:24;45.40;;;22.00;;
77085;SDS011;66014;53.134;18.006;2024-03-06T08:15:53;47.70;;;21.90;;
77085;SDS011;66014;53.134;18.006;2024-03-06T08:18:19;43.90;;;21.90;;
77085;SDS011;66014;53.134;18.006;2024-03-06T08:20:48;49.80;;;23.30;;
77085;SDS011;66014;53.134;18.006;2024-03-06T08:23:20;46.00;;;21.50;;
77085;SDS011;66014;53.134;18.006;2024-03-06T08:25:46;38.80;;;19.20;;
77085;SDS011;66014;53.134;18.006;2024-03-06T08:28:30;44.50;;;21.10;;
77085;SDS011;66014;53.134;18.006;2024-03-06T08:30:56;45.00;;;21.50;;
77085;SDS011;66014;53.134;18.006;2024-03-06T08:33:22;41.50;;;20.00;;
77085;SDS011;66014;53.134;18.006;2024-03-06T08:35:48;44.70;;;20.10;;
77085;SDS011;66014;53.134;18.006;2024-03-06T08:38:14;43.20;;;20.80;;
77085;SDS011;66014;53.134;18.006;2024-03-06T08:40:40;37.30;;;19.10;;
77085;SDS011;66014;53.134;18.006;2024-03-06T08:43:11;33.70;;;16.70;;
77085;SDS011;66014;53.134;18.006;2024-03-06T08:45:38;45.30;;;19.80;;
77085;SDS011;66014;53.134;18.006;2024-03-06T08:48:04;44.20;;;17.60;;
77085;SDS011;66014;53.134;18.006;2024-03-06T08:50:31;28.80;;;15.50;;
77085;SDS011;66014;53.134;18.006;2024-03-06T08:52:57;32.50;;;15.80;;
77085;SDS011;66014;53.134;18.006;2024-03-06T08:55:23;39.70;;;15.90;;
77085;SDS011;66014;53.134;18.006;2024-03-06T08:57:49;33.70;;;16.30;;
77085;SDS011;66014;53.134;18.006;2024-03-06T09:00:15;35.10;;;17.30;;
77085;SDS011;66014;53.134;18.006;2024-03-06T09:02:45;40.70;;;19.70;;
77085;SDS011;66014;53.134;18.006;2024-03-06T09:05:11;33.20;;;17.30;;
77085;SDS011;66014;53.134;18.006;2024-03-06T09:07:38;34.60;;;17.30;;
77085;SDS011;66014;53.134;18.006;2024-03-06T09:12:38;35.10;;;14.70;;
77085;SDS011;66014;53.134;18.006;2024-03-06T09:15:05;30.70;;;15.30;;
77085;SDS011;66014;53.134;18.006;2024-03-06T09:18:01;34.00;;;16.70;;
77085;SDS011;66014;53.134;18.006;2024-03-06T09:20:27;27.90;;;15.10;;
77085;SDS011;66014;53.134;18.006;2024-03-06T09:23:04;26.70;;;14.20;;
77085;SDS011;66014;53.134;18.006;2024-03-06T09:25:30;28.70;;;15.10;;
77085;SDS011;66014;53.134;18.006;2024-03-06T09:27:56;25.80;;;12.20;;
77085;SDS011;66014;53.134;18.006;2024-03-06T09:30:22;28.70;;;14.50;;
77085;SDS011;66014;53.134;18.006;2024-03-06T09:32:53;23.50;;;12.40;;
77085;SDS011;66014;53.134;18.006;2024-03-06T09:35:19;29.60;;;14.00;;
77085;SDS011;66014;53.134;18.006;2024-03-06T09:37:45;24.10;;;13.30;;
77085;SDS011;66014;53.134;18.006;2024-03-06T09:40:16;26.10;;;15.10;;
77085;SDS011;66014;53.134;18.006;2024-03-06T09:42:46;23.90;;;11.90;;
77085;SDS011;66014;53.134;18.006;2024-03-06T09:45:15;25.70;;;11.70;;
77085;SDS011;66014;53.134;18.006;2024-03-06T09:47:42;27.50;;;13.60;;
77085;SDS011;66014;53.134;18.006;2024-03-06T09:50:11;31.70;;;15.80;;
77085;SDS011;66014;53.134;18.006;2024-03-06T09:52:42;35.20;;;15.10;;
77085;SDS011;66014;53.134;18.006;2024-03-06T09:55:11;35.20;;;16.70;;
77085;SDS011;66014;53.134;18.006;2024-03-06T09:57:38;31.90;;;15.70;;
77085;SDS011;66014;53.134;18.006;2024-03-06T10:02:36;33.90;;;16.30;;
77085;SDS011;66014;53.134;18.006;2024-03-06T10:05:18;32.30;;;16.10;;
77085;SDS011;66014;53.134;18.006;2024-03-06T10:07:58;32.60;;;15.50;;
77085;SDS011;66014;53.134;18.006;2024-03-06T10:10:28;27.60;;;14.50;;
77085;SDS011;66014;53.134;18.006;2024-03-06T10:12:53;28.20;;;13.70;;
77085;SDS011;66014;53.134;18.006;2024-03-06T10:15:19;41.80;;;19.30;;
77085;SDS011;66014;53.134;18.006;2024-03-06T10:17:47;32.90;;;15.70;;
77085;SDS011;66014;53.134;18.006;2024-03-06T10:20:16;25.50;;;14.00;;
77085;SDS011;66014;53.134;18.006;2024-03-06T10:22:53;28.40;;;14.50;;
77085;SDS011;66014;53.134;18.006;2024-03-06T10:25:20;28.10;;;13.60;;
77085;SDS011;66014;53.134;18.006;2024-03-06T10:28:01;28.10;;;13.90;;
77085;SDS011;66014;53.134;18.006;2024-03-06T10:30:36;27.80;;;13.60;;
77085;SDS011;66014;53.134;18.006;2024-03-06T10:33:05;30.30;;;14.70;;
77085;SDS011;66014;53.134;18.006;2024-03-06T10:35:32;29.00;;;13.70;;
77085;SDS011;66014;53.134;18.006;2024-03-06T10:43:33;27.40;;;14.80;;
77085;SDS011;66014;53.134;18.006;2024-03-06T10:46:01;25.10;;;12.90;;
77085;SDS011;66014;53.134;18.006;2024-03-06T10:48:33;27.60;;;13.30;;
77085;SDS011;66014;53.134;18.006;2024-03-06T10:51:27;27.40;;;14.70;;
77085;SDS011;66014;53.134;18.006;2024-03-06T10:53:57;28.70;;;15.50;;
77085;SDS011;66014;53.134;18.006;2024-03-06T10:56:39;30.60;;;14.80;;
77085;SDS011;66014;53.134;18.006;2024-03-06T10:59:18;30.90;;;15.60;;
77085;SDS011;66014;53.134;18.006;2024-03-06T11:02:09;29.80;;;14.70;;
77085;SDS011;66014;53.134;18.006;2024-03-06T11:04:57;33.80;;;15.70;;
77085;SDS011;66014;53.134;18.006;2024-03-06T11:07:24;38.20;;;17.30;;
77085;SDS011;66014;53.134;18.006;2024-03-06T11:09:53;31.80;;;16.20;;
77085;SDS011;66014;53.134;18.006;2024-03-06T11:12:36;29.30;;;16.40;;
77085;SDS011;66014;53.134;18.006;2024-03-06T11:15:27;32.90;;;17.90;;
77085;SDS011;66014;53.134;18.006;2024-03-06T11:29:07;29.90;;;15.80;;
77085;SDS011;66014;53.134;18.006;2024-03-06T11:34:21;27.90;;;15.00;;
77085;SDS011;66014;53.134;18.006;2024-03-06T11:36:47;40.30;;;18.60;;
77085;SDS011;66014;53.134;18.006;2024-03-06T11:39:22;35.40;;;17.40;;
77085;SDS011;66014;53.134;18.006;2024-03-06T11:41:49;32.80;;;16.00;;
77085;SDS011;66014;53.134;18.006;2024-03-06T11:44:19;30.10;;;15.70;;
77085;SDS011;66014;53.134;18.006;2024-03-06T11:46:50;26.00;;;14.30;;
77085;SDS011;66014;53.134;18.006;2024-03-06T11:49:24;26.50;;;13.00;;
77085;SDS011;66014;53.134;18.006;2024-03-06T11:51:53;30.30;;;15.80;;
77085;SDS011;66014;53.134;18.006;2024-03-06T11:54:20;33.80;;;16.20;;
77085;SDS011;66014;53.134;18.006;2024-03-06T11:56:53;30.40;;;15.50;;
77085;SDS011;66014;53.134;18.006;2024-03-06T11:59:25;28.50;;;13.90;;
77085;SDS011;66014;53.134;18.006;2024-03-06T12:01:53;27.70;;;14.10;;
77085;SDS011;66014;53.134;18.006;2024-03-06T12:04:21;30.60;;;15.20;;
77085;SDS011;66014;53.134;18.006;2024-03-06T12:06:47;24.30;;;13.10;;
77085;SDS011;66014;53.134;18.006;2024-03-06T12:09:14;24.00;;;13.30;;
77085;SDS011;66014;53.134;18.006;2024-03-06T12:11:41;21.70;;;12.30;;
77085;SDS011;66014;53.134;18.006;2024-03-06T12:14:16;29.40;;;15.10;;
77085;SDS011;66014;53.134;18.006;2024-03-06T12:16:56;24.80;;;14.10;;
77085;SDS011;66014;53.134;18.006;2024-03-06T12:19:22;33.00;;;14.70;;
77085;SDS011;66014;53.134;18.006;2024-03-06T12:21:48;24.90;;;13.90;;
77085;SDS011;66014;53.134;18.006;2024-03-06T12:24:15;26.50;;;13.80;;
77085;SDS011;66014;53.134;18.006;2024-03-06T12:26:44;25.30;;;13.40;;
77085;SDS011;66014;53.134;18.006;2024-03-06T12:29:11;23.60;;;12.50;;
77085;SDS011;66014;53.134;18.006;2024-03-06T12:31:38;24.70;;;12.70;;
77085;SDS011;66014;53.134;18.006;2024-03-06T12:34:07;23.00;;;13.30;;
77085;SDS011;66014;53.134;18.006;2024-03-06T12:36:34;31.20;;;19.30;;
77085;SDS011;66014;53.134;18.006;2024-03-06T12:39:02;29.70;;;15.60;;
77085;SDS011;66014;53.134;18.006;2024-03-06T12:41:29;22.10;;;12.70;;
77085;SDS011;66014;53.134;18.006;2024-03-06T12:43:55;27.80;;;13.40;;
77085;SDS011;66014;53.134;18.006;2024-03-06T12:46:22;24.20;;;12.20;;
77085;SDS011;66014;53.134;18.006;2024-03-06T12:48:49;20.10;;;10.70;;
77085;SDS011;66014;53.134;18.006;2024-03-06T12:51:29;25.60;;;12.50;;
77085;SDS011;66014;53.134;18.006;2024-03-06T12:53:54;30.70;;;13.10;;
77085;SDS011;66014;53.134;18.006;2024-03-06T12:56:20;21.80;;;11.70;;
77085;SDS011;66014;53.134;18.006;2024-03-06T12:58:46;24.30;;;14.00;;
77085;SDS011;66014;53.134;18.006;2024-03-06T13:01:12;23.70;;;11.60;;
77085;SDS011;66014;53.134;18.006;2024-03-06T13:04:03;22.60;;;12.20;;
77085;SDS011;66014;53.134;18.006;2024-03-06T13:06:28;19.30;;;11.10;;
77085;SDS011;66014;53.134;18.006;2024-03-06T13:08:56;20.40;;;11.60;;
77085;SDS011;66014;53.134;18.006;2024-03-06T13:11:23;22.90;;;11.50;;
77085;SDS011;66014;53.134;18.006;2024-03-06T13:13:49;18.50;;;11.20;;
77085;SDS011;66014;53.134;18.006;2024-03-06T13:16:16;24.20;;;11.70;;
77085;SDS011;66014;53.134;18.006;2024-03-06T13:18:42;21.80;;;11.10;;
77085;SDS011;66014;53.134;18.006;2024-03-06T13:21:08;20.00;;;10.10;;
77085;SDS011;66014;53.134;18.006;2024-03-06T13:23:34;19.50;;;10.80;;
77085;SDS011;66014;53.134;18.006;2024-03-06T13:26:01;20.10;;;11.50;;
77085;SDS011;66014;53.134;18.006;2024-03-06T13:28:28;16.60;;;10.70;;
77085;SDS011;66014;53.134;18.006;2024-03-06T13:30:54;20.40;;;10.40;;
77085;SDS011;66014;53.134;18.006;2024-03-06T13:33:22;20.90;;;10.40;;
77085;SDS011;66014;53.134;18.006;2024-03-06T13:35:55;22.50;;;10.50;;
77085;SDS011;66014;53.134;18.006;2024-03-06T13:38:21;22.20;;;10.30;;
77085;SDS011;66014;53.134;18.006;2024-03-06T13:40:47;19.80;;;10.00;;
77085;SDS011;66014;53.134;18.006;2024-03-06T13:43:16;21.10;;;10.00;;
77085;SDS011;66014;53.134;18.006;2024-03-06T13:45:51;22.90;;;9.80;;
77085;SDS011;66014;53.134;18.006;2024-03-06T13:48:18;23.70;;;10.70;;
77085;SDS011;66014;53.134;18.006;2024-03-06T13:50:48;18.90;;;9.60;;
77085;SDS011;66014;53.134;18.006;2024-03-06T13:53:15;19.40;;;9.80;;
77085;SDS011;66014;53.134;18.006;2024-03-06T13:55:42;29.10;;;9.80;;
77085;SDS011;66014;53.134;18.006;2024-03-06T13:58:08;19.00;;;9.90;;
77085;SDS011;66014;53.134;18.006;2024-03-06T14:00:34;19.00;;;10.40;;
77085;SDS011;66014;53.134;18.006;2024-03-06T14:03:00;22.30;;;10.30;;
77085;SDS011;66014;53.134;18.006;2024-03-06T14:05:27;20.60;;;8.20;;
77085;SDS011;66014;53.134;18.006;2024-03-06T14:07:57;17.50;;;7.90;;
77085;SDS011;66014;53.134;18.006;2024-03-06T14:10:26;24.60;;;9.30;;
77085;SDS011;66014;53.134;18.006;2024-03-06T14:12:59;22.10;;;10.90;;
77085;SDS011;66014;53.134;18.006;2024-03-06T14:15:25;24.90;;;9.70;;
77085;SDS011;66014;53.134;18.006;2024-03-06T14:17:52;21.40;;;9.20;;
77085;SDS011;66014;53.134;18.006;2024-03-06T14:20:22;29.00;;;9.20;;
77085;SDS011;66014;53.134;18.006;2024-03-06T14:22:49;20.90;;;9.00;;
77085;SDS011;66014;53.134;18.006;2024-03-06T14:25:21;18.00;;;8.20;;
77085;SDS011;66014;53.134;18.006;2024-03-06T14:28:17;16.50;;;7.10;;
77085;SDS011;66014;53.134;18.006;2024-03-06T14:30:46;19.10;;;9.00;;
77085;SDS011;66014;53.134;18.006;2024-03-06T14:33:12;15.80;;;7.50;;
77085;SDS011;66014;53.134;18.006;2024-03-06T14:35:38;20.30;;;7.70;;
77085;SDS011;66014;53.134;18.006;2024-03-06T14:38:11;17.40;;;7.00;;
77085;SDS011;66014;53.134;18.006;2024-03-06T14:40:50;17.20;;;7.10;;
77085;SDS011;66014;53.134;18.006;2024-03-06T14:43:16;13.00;;;6.40;;
77085;SDS011;66014;53.134;18.006;2024-03-06T14:45:44;15.70;;;7.30;;
77085;SDS011;66014;53.134;18.006;2024-03-06T14:48:14;15.20;;;8.00;;
77085;SDS011;66014;53.134;18.006;2024-03-06T14:53:54;23.40;;;8.10;;
77085;SDS011;66014;53.134;18.006;2024-03-06T14:56:21;16.10;;;7.30;;
77085;SDS011;66014;53.134;18.006;2024-03-06T14:58:47;18.60;;;6.70;;
77085;SDS011;66014;53.134;18.006;2024-03-06T15:01:13;12.70;;;6.00;;
77085;SDS011;66014;53.134;18.006;2024-03-06T15:03:40;20.00;;;6.40;;
77085;SDS011;66014;53.134;18.006;2024-03-06T15:06:06;13.20;;;5.50;;
77085;SDS011;66014;53.134;18.006;2024-03-06T15:08:33;14.00;;;5.90;;
77085;SDS011;66014;53.134;18.006;2024-03-06T15:11:02;10.20;;;4.80;;
77085;SDS011;66014;53.134;18.006;2024-03-06T15:13:28;14.20;;;6.10;;
77085;SDS011;66014;53.134;18.006;2024-03-06T15:16:01;17.00;;;6.10;;